This is the latest recevied weather packets stored in our database for station/object WB4ROX. If no packets are shown the sender has not sent any weather packets the latest 10 day(s).
| Time | Temp. | Humidity | Pressure | Rain* | Wind** | Luminosity | Snow |
|---|---|---|---|---|---|---|---|
| 1777594356 | 7.78° C | 56% | 1015 hPa | 0 mm | - | 4 W/m² | - |
| 1777594051 | 8.33° C | 54% | 1014.8 hPa | 0 mm | - | 9 W/m² | - |
| 1777593747 | 8.33° C | 51% | 1014.8 hPa | 0 mm | - | 11 W/m² | - |
| 1777593443 | 8.89° C | 50% | 1014.8 hPa | 0 mm | - | 16 W/m² | - |
| 1777593142 | 8.89° C | 50% | 1014.7 hPa | 0 mm | - | 22 W/m² | - |
| 1777592841 | 8.89° C | 50% | 1015 hPa | 0 mm | - | 33 W/m² | - |
| 1777592538 | 8.89° C | 49% | 1014.8 hPa | 0 mm | - | 36 W/m² | - |
| 1777592234 | 9.44° C | 48% | 1014.8 hPa | 0 mm | - | 38 W/m² | - |
| 1777591930 | 9.44° C | 48% | 1014.6 hPa | 0 mm | - | 51 W/m² | - |
| 1777591626 | 9.44° C | 47% | 1014.6 hPa | 0 mm | - | 62 W/m² | - |
| 1777591322 | 9.44° C | 46% | 1014.7 hPa | 0 mm | - | 66 W/m² | - |
| 1777591018 | 10° C | 43% | 1014.6 hPa | 0 mm | - | 73 W/m² | - |
| 1777590713 | 9.44° C | 44% | 1014.4 hPa | 0 mm | - | 97 W/m² | - |
| 1777590410 | 9.44° C | 44% | 1014.5 hPa | 0 mm | - | 88 W/m² | - |
| 1777590107 | 10° C | 44% | 1014.4 hPa | 0 mm | - | 118 W/m² | - |
| 1777589803 | 9.44° C | 45% | 1014 hPa | 0 mm | - | 103 W/m² | - |
| 1777589498 | 10° C | 43% | 1014.3 hPa | 0 mm | - | 142 W/m² | - |
| 1777589197 | 10° C | 43% | 1014.4 hPa | 0 mm | - | 156 W/m² | - |
| 1777588894 | 10° C | 45% | 1014.3 hPa | 0 mm | - | 169 W/m² | - |
| 1777588590 | 10° C | 46% | 1014.4 hPa | 0 mm | - | 194 W/m² | - |
| 1777588286 | 10° C | 47% | 1014.1 hPa | 0 mm | - | 103 W/m² | - |
| 1777587981 | 10° C | 47% | 1014.5 hPa | 0 mm | - | 216 W/m² | - |
| 1777587678 | 10° C | 48% | 1014.4 hPa | 0 mm | - | 234 W/m² | - |
| 1777587377 | 10.56° C | 49% | 1014.3 hPa | 0 mm | - | 249 W/m² | - |
| 1777587073 | 10.56° C | 49% | 1014.4 hPa | 0 mm | - | 247 W/m² | - |
* Rain latest hour (hover to see other rain measurements)
** Current wind speed in m/s (hover to see current wind gust speed)